createdAt,value
2019-03-21T00:00:31.177Z,0
2019-03-21T00:01:11.585Z,0
2019-03-21T00:01:51.960Z,0
2019-03-21T00:02:32.321Z,0
2019-03-21T00:03:12.809Z,0
2019-03-21T00:03:53.236Z,0
2019-03-21T00:04:33.638Z,0
2019-03-21T00:05:14.127Z,0
2019-03-21T00:05:54.551Z,0
2019-03-21T00:06:34.899Z,0
2019-03-21T00:07:15.310Z,0
2019-03-21T00:07:55.652Z,0
2019-03-21T00:08:36.078Z,0
2019-03-21T00:09:16.480Z,0
2019-03-21T00:09:56.813Z,0
2019-03-21T00:10:37.223Z,0
2019-03-21T00:11:17.647Z,0
2019-03-21T00:11:58.073Z,0
2019-03-21T00:12:38.428Z,0
2019-03-21T00:13:18.822Z,0
2019-03-21T00:14:06.785Z,0
2019-03-21T00:14:39.620Z,0
2019-03-21T00:15:19.993Z,0
2019-03-21T00:16:00.428Z,0
2019-03-21T00:16:40.863Z,0
2019-03-21T00:17:21.251Z,0
2019-03-21T00:18:01.676Z,0
2019-03-21T00:18:42.030Z,0
2019-03-21T00:19:22.502Z,0
2019-03-21T00:20:02.837Z,0
2019-03-21T00:20:43.204Z,0
2019-03-21T00:21:23.719Z,0
2019-03-21T00:22:04.166Z,0
2019-03-21T00:22:44.456Z,0
2019-03-21T00:23:24.898Z,0
2019-03-21T00:24:05.317Z,0
2019-03-21T00:24:45.734Z,0
2019-03-21T00:25:26.138Z,0
2019-03-21T00:26:06.526Z,0
2019-03-21T00:26:46.908Z,0
2019-03-21T00:27:27.275Z,0
2019-03-21T00:28:07.735Z,0
2019-03-21T00:28:48.152Z,0
2019-03-21T00:29:28.557Z,0
2019-03-21T00:30:08.904Z,0
2019-03-21T00:30:49.406Z,0
2019-03-21T00:31:29.754Z,0
2019-03-21T00:32:10.157Z,0
2019-03-21T00:32:50.525Z,0
2019-03-21T00:33:30.971Z,0
2019-03-21T00:34:11.469Z,0
2019-03-21T00:34:51.793Z,0
2019-03-21T00:35:32.159Z,0
2019-03-21T00:36:12.587Z,0
2019-03-21T00:36:52.910Z,0
2019-03-21T00:37:33.472Z,0
2019-03-21T00:38:13.702Z,0
2019-03-21T00:38:54.138Z,0
2019-03-21T00:39:34.567Z,0
2019-03-21T00:40:14.898Z,0
2019-03-21T00:40:55.385Z,0
2019-03-21T00:41:35.772Z,0
2019-03-21T00:42:16.154Z,0
2019-03-21T00:42:56.541Z,0
2019-03-21T00:43:36.952Z,0
2019-03-21T00:44:18.257Z,0
2019-03-21T00:44:57.836Z,0
2019-03-21T00:45:38.150Z,0
2019-03-21T00:46:18.527Z,0
2019-03-21T00:46:58.975Z,0
2019-03-21T00:47:39.327Z,0
2019-03-21T00:48:19.737Z,0
2019-03-21T00:49:00.158Z,0
2019-03-21T00:49:40.585Z,0
2019-03-21T00:50:20.993Z,0
2019-03-21T00:51:01.346Z,0
2019-03-21T00:51:41.765Z,0
2019-03-21T00:52:22.103Z,0
2019-03-21T00:53:02.493Z,0
2019-03-21T00:53:42.951Z,0
2019-03-21T00:54:23.325Z,0
2019-03-21T00:55:03.738Z,0
2019-03-21T00:55:44.142Z,0
2019-03-21T00:56:24.536Z,0
2019-03-21T00:57:04.976Z,0
2019-03-21T00:57:45.366Z,0
2019-03-21T00:58:25.731Z,0
2019-03-21T00:59:06.185Z,0
2019-03-21T00:59:46.592Z,0
2019-03-21T01:00:26.995Z,0
2019-03-21T01:01:07.423Z,0
2019-03-21T01:01:47.805Z,0
2019-03-21T01:02:28.182Z,0
2019-03-21T01:03:08.546Z,0
2019-03-21T01:03:49.003Z,0
2019-03-21T01:04:29.348Z,0
2019-03-21T01:05:09.773Z,0
2019-03-21T01:05:50.141Z,0
2019-03-21T01:06:30.620Z,0
2019-03-21T01:07:10.996Z,0
2019-03-21T01:07:51.374Z,0
2019-03-21T01:08:31.821Z,0
2019-03-21T01:09:12.174Z,0
2019-03-21T01:09:52.583Z,0
2019-03-21T01:10:32.934Z,0
2019-03-21T01:11:13.356Z,0
2019-03-21T01:11:53.770Z,0
2019-03-21T01:12:34.127Z,0
2019-03-21T01:13:14.500Z,0
2019-03-21T01:13:54.880Z,0
2019-03-21T01:14:35.347Z,0
2019-03-21T01:15:15.777Z,0
2019-03-21T01:15:56.137Z,0
2019-03-21T01:16:36.569Z,0
2019-03-21T01:17:16.949Z,0
2019-03-21T01:17:57.364Z,0
2019-03-21T01:18:37.780Z,0
2019-03-21T01:19:18.109Z,0
2019-03-21T01:19:58.554Z,0
2019-03-21T01:20:38.940Z,0
2019-03-21T01:21:19.303Z,0
2019-03-21T01:21:59.791Z,0
2019-03-21T01:22:40.127Z,0
2019-03-21T01:23:20.560Z,0
2019-03-21T01:24:01.015Z,0
2019-03-21T01:24:41.445Z,0
2019-03-21T01:25:21.805Z,0
2019-03-21T01:26:02.177Z,0
2019-03-21T01:26:42.545Z,0
2019-03-21T01:27:22.906Z,0
2019-03-21T01:28:03.369Z,0
2019-03-21T01:28:43.723Z,0
2019-03-21T01:29:24.088Z,0
2019-03-21T01:30:04.560Z,0
2019-03-21T01:30:44.985Z,0
2019-03-21T01:31:25.384Z,0
2019-03-21T01:32:05.768Z,0
2019-03-21T01:32:46.178Z,0
2019-03-21T01:33:26.551Z,0
2019-03-21T01:34:06.946Z,0
2019-03-21T01:34:47.306Z,0
2019-03-21T01:35:27.724Z,0
2019-03-21T01:36:08.107Z,0
2019-03-21T01:36:48.556Z,0
2019-03-21T01:37:28.975Z,0
2019-03-21T01:38:09.448Z,0
2019-03-21T01:38:49.772Z,0
2019-03-21T01:39:30.243Z,0
2019-03-21T01:40:10.582Z,0
2019-03-21T01:40:51.017Z,0
2019-03-21T01:41:31.493Z,0
2019-03-21T01:42:11.823Z,0
2019-03-21T01:42:52.177Z,0
2019-03-21T01:43:32.650Z,0
2019-03-21T01:44:13.111Z,0
2019-03-21T01:44:53.502Z,0
2019-03-21T01:45:33.891Z,0
2019-03-21T01:46:14.277Z,0
2019-03-21T01:46:54.627Z,0
2019-03-21T01:47:35.050Z,0
2019-03-21T01:48:15.442Z,0
2019-03-21T01:48:55.822Z,0
2019-03-21T01:49:36.198Z,0
2019-03-21T01:50:16.585Z,0
2019-03-21T01:50:56.987Z,0
2019-03-21T01:51:37.368Z,0
2019-03-21T01:52:17.811Z,0
2019-03-21T01:52:58.172Z,0
2019-03-21T01:53:38.574Z,0
2019-03-21T01:54:19.006Z,0
2019-03-21T01:54:59.409Z,0
2019-03-21T01:55:39.774Z,0
2019-03-21T01:56:20.280Z,0
2019-03-21T01:57:00.672Z,0
2019-03-21T01:57:41.050Z,0
2019-03-21T01:58:21.468Z,0
2019-03-21T01:59:02.012Z,0
2019-03-21T01:59:42.386Z,0
2019-03-21T02:00:22.759Z,0
2019-03-21T02:01:03.208Z,0
2019-03-21T02:01:43.595Z,0
2019-03-21T02:02:23.997Z,0
2019-03-21T02:03:04.382Z,0
2019-03-21T02:03:44.815Z,0
2019-03-21T02:04:25.208Z,0
2019-03-21T02:05:05.577Z,0
2019-03-21T02:05:45.984Z,0
2019-03-21T02:06:26.374Z,0
2019-03-21T02:07:06.791Z,0
2019-03-21T02:07:47.291Z,0
2019-03-21T02:08:27.698Z,0
2019-03-21T02:09:08.158Z,0
2019-03-21T02:09:48.577Z,0
2019-03-21T02:10:28.967Z,0
2019-03-21T02:11:09.385Z,0
2019-03-21T02:11:49.865Z,0
2019-03-21T02:12:30.358Z,0
2019-03-21T02:13:10.709Z,0
2019-03-21T02:13:51.121Z,0
2019-03-21T02:14:31.509Z,0
2019-03-21T02:15:11.902Z,0
2019-03-21T02:15:52.280Z,0
2019-03-21T02:16:32.620Z,0
2019-03-21T02:17:13.049Z,0
2019-03-21T02:17:53.438Z,0
2019-03-21T02:18:33.810Z,0
2019-03-21T02:19:14.280Z,0
2019-03-21T02:19:54.666Z,0
2019-03-21T02:20:35.068Z,0
2019-03-21T02:21:15.502Z,0
2019-03-21T02:21:55.888Z,0
2019-03-21T02:22:36.355Z,0
2019-03-21T02:23:16.710Z,0
2019-03-21T02:23:57.123Z,0
2019-03-21T02:24:37.529Z,0
2019-03-21T02:25:17.911Z,0
2019-03-21T02:25:58.288Z,0
2019-03-21T02:26:38.688Z,0
2019-03-21T02:27:19.134Z,0
2019-03-21T02:27:59.438Z,0
2019-03-21T02:28:39.898Z,0
2019-03-21T02:29:20.323Z,0
2019-03-21T02:30:00.731Z,0
2019-03-21T02:30:41.075Z,0
2019-03-21T02:31:21.524Z,0
2019-03-21T02:32:01.994Z,0
2019-03-21T02:32:42.309Z,0
2019-03-21T02:33:22.729Z,0
2019-03-21T02:34:03.083Z,0
2019-03-21T02:34:43.564Z,0
2019-03-21T02:35:23.926Z,0
2019-03-21T02:36:04.283Z,0
2019-03-21T02:36:44.729Z,0
2019-03-21T02:37:25.180Z,0
2019-03-21T02:38:05.460Z,0
2019-03-21T02:38:45.972Z,0
2019-03-21T02:39:26.357Z,0
2019-03-21T02:40:06.757Z,0
2019-03-21T02:40:47.199Z,0
2019-03-21T02:41:27.553Z,0
2019-03-21T02:42:07.993Z,0
2019-03-21T02:42:48.415Z,0
2019-03-21T02:43:28.736Z,0
2019-03-21T02:44:09.169Z,0
2019-03-21T02:44:49.747Z,0
2019-03-21T02:45:29.991Z,0
2019-03-21T02:46:10.378Z,0
2019-03-21T02:46:50.812Z,0
2019-03-21T02:47:31.266Z,0
2019-03-21T02:48:11.656Z,0
2019-03-21T02:48:52.144Z,0
2019-03-21T02:49:32.413Z,0
2019-03-21T02:50:12.847Z,0
2019-03-21T02:50:53.231Z,0
2019-03-21T02:51:33.602Z,0
2019-03-21T02:52:13.991Z,0
2019-03-21T02:52:54.442Z,0
2019-03-21T02:53:34.890Z,0
2019-03-21T02:54:15.275Z,0
2019-03-21T02:54:55.739Z,0
2019-03-21T02:55:36.133Z,0
2019-03-21T02:56:16.556Z,0
2019-03-21T02:56:57.034Z,0
2019-03-21T02:57:37.354Z,0
2019-03-21T02:58:17.790Z,0
2019-03-21T02:58:58.239Z,0
2019-03-21T02:59:38.688Z,0
2019-03-21T03:00:18.987Z,0
2019-03-21T03:00:59.421Z,0
2019-03-21T03:01:39.819Z,0
2019-03-21T03:02:20.161Z,0
2019-03-21T03:03:00.583Z,0
2019-03-21T03:03:41.086Z,0
2019-03-21T03:04:21.569Z,0
2019-03-21T03:05:01.933Z,0
2019-03-21T03:05:42.474Z,0
2019-03-21T03:06:22.865Z,0
2019-03-21T03:07:03.279Z,0
2019-03-21T03:07:43.735Z,0
2019-03-21T03:08:24.152Z,0
2019-03-21T03:09:04.572Z,0
2019-03-21T03:09:45.047Z,0
2019-03-21T03:10:25.409Z,0
2019-03-21T03:11:05.795Z,0
2019-03-21T03:11:46.218Z,0
2019-03-21T03:12:26.582Z,0
2019-03-21T03:13:06.998Z,0
2019-03-21T03:13:47.346Z,0
2019-03-21T03:14:27.811Z,0
2019-03-21T03:15:21.297Z,0
2019-03-21T03:15:48.646Z,0
2019-03-21T03:16:28.987Z,0
2019-03-21T03:17:09.331Z,0
2019-03-21T03:17:49.738Z,0
2019-03-21T03:18:30.136Z,0
2019-03-21T03:19:10.566Z,0
2019-03-21T03:19:50.968Z,0
2019-03-21T03:20:31.294Z,0
2019-03-21T03:21:11.700Z,0
2019-03-21T03:21:52.141Z,0
2019-03-21T03:22:32.480Z,0
2019-03-21T03:23:12.885Z,0
2019-03-21T03:23:53.266Z,0
2019-03-21T03:24:33.652Z,0
2019-03-21T03:25:14.045Z,0
2019-03-21T03:25:54.477Z,0
2019-03-21T03:26:34.913Z,0
2019-03-21T03:27:15.299Z,0
2019-03-21T03:27:55.641Z,0
2019-03-21T03:28:36.171Z,0
2019-03-21T03:29:16.607Z,0
2019-03-21T03:29:57.053Z,0
2019-03-21T03:30:37.500Z,0
2019-03-21T03:31:17.858Z,0
2019-03-21T03:31:58.192Z,0
2019-03-21T03:32:38.719Z,0
2019-03-21T03:33:19.000Z,0
2019-03-21T03:33:59.445Z,0
2019-03-21T03:34:39.861Z,0
2019-03-21T03:37:31.311Z,0
2019-03-21T03:38:23.502Z,0
2019-03-21T03:39:16.600Z,0
2019-03-21T03:40:09.206Z,0
2019-03-21T03:41:01.550Z,0
2019-03-21T03:41:54.140Z,0
2019-03-21T03:42:46.623Z,0
2019-03-21T03:43:41.550Z,0
2019-03-21T03:44:36.007Z,0
2019-03-21T03:45:37.065Z,0
2019-03-21T03:46:26.398Z,0
2019-03-21T03:47:20.467Z,0
2019-03-21T03:48:13.338Z,0
2019-03-21T03:49:06.442Z,0
2019-03-21T03:50:00.540Z,0
2019-03-21T03:50:52.513Z,0
2019-03-21T03:51:47.476Z,0
2019-03-21T03:52:41.109Z,0
2019-03-21T03:53:36.504Z,0
2019-03-21T03:54:30.711Z,0
2019-03-21T03:55:25.266Z,0
2019-03-21T03:56:20.018Z,0
2019-03-21T03:57:13.199Z,0
2019-03-21T03:58:05.584Z,0
2019-03-21T03:59:01.003Z,0
2019-03-21T03:59:54.485Z,0
2019-03-21T04:00:48.456Z,0
2019-03-21T04:01:42.799Z,0
2019-03-21T04:02:37.556Z,0
2019-03-21T04:03:30.528Z,0
2019-03-21T04:04:24.194Z,0
2019-03-21T04:05:18.686Z,0
2019-03-21T04:06:12.396Z,0
2019-03-21T04:07:04.809Z,0
2019-03-21T04:07:58.157Z,0
2019-03-21T04:08:50.766Z,0
2019-03-21T04:09:44.017Z,0
2019-03-21T04:10:36.968Z,0
2019-03-21T04:11:29.963Z,0
2019-03-21T04:12:23.054Z,0
2019-03-21T04:13:16.119Z,0
2019-03-21T04:14:08.853Z,0
2019-03-21T04:15:02.525Z,0
2019-03-21T04:15:56.645Z,0
2019-03-21T04:16:48.872Z,0
2019-03-21T04:17:41.915Z,0
2019-03-21T04:18:34.477Z,0
2019-03-21T04:19:29.604Z,0
2019-03-21T04:20:22.361Z,0
2019-03-21T04:21:14.499Z,0
2019-03-21T04:22:07.169Z,0
2019-03-21T04:23:00.334Z,0
2019-03-21T04:23:52.618Z,0
2019-03-21T04:24:45.733Z,0
2019-03-21T04:25:37.948Z,0
2019-03-21T04:26:31.893Z,0
2019-03-21T04:27:24.983Z,0
2019-03-21T04:28:18.985Z,0
2019-03-21T05:06:23.332Z,4
2019-03-21T05:07:22.560Z,0
2019-03-21T05:08:20.553Z,4
2019-03-21T05:09:21.594Z,0
2019-03-21T05:10:22.821Z,4
2019-03-21T05:11:25.467Z,4
2019-03-21T05:15:39.655Z,8
2019-03-21T05:16:34.783Z,12
2019-03-21T05:17:32.768Z,12
2019-03-21T05:18:34.160Z,12
2019-03-21T05:19:33.156Z,16
2019-03-21T05:20:30.565Z,20
2019-03-21T05:21:25.362Z,24
2019-03-21T05:22:21.372Z,28
2019-03-21T05:23:20.379Z,36
2019-03-21T05:24:21.410Z,40
2019-03-21T05:25:20.990Z,44
2019-03-21T05:26:27.452Z,48
2019-03-21T05:27:27.536Z,56
2019-03-21T05:28:29.453Z,64
2019-03-21T05:29:36.175Z,68
2019-03-21T05:30:40.663Z,76
2019-03-21T05:31:42.801Z,80
2019-03-21T05:32:39.902Z,88
2019-03-21T05:33:40.824Z,100
2019-03-21T05:34:41.802Z,116
2019-03-21T05:35:48.130Z,128
2019-03-21T05:36:45.241Z,140
2019-03-21T05:37:51.825Z,156
2019-03-21T05:38:53.724Z,172
2019-03-21T05:39:59.486Z,188
2019-03-21T05:40:55.888Z,204
2019-03-21T05:41:50.161Z,220
2019-03-21T05:42:44.035Z,236
2019-03-21T05:43:40.857Z,256
2019-03-21T05:44:37.905Z,280
2019-03-21T05:45:33.950Z,300
2019-03-21T05:46:32.328Z,336
2019-03-21T05:47:32.673Z,364
2019-03-21T05:48:29.653Z,392
2019-03-21T05:49:28.913Z,424
2019-03-21T05:50:24.650Z,476
2019-03-21T05:51:24.872Z,540
2019-03-21T05:52:21.349Z,576
2019-03-21T05:53:19.980Z,588
2019-03-21T05:54:19.937Z,584
2019-03-21T05:55:18.608Z,568
2019-03-21T05:56:15.403Z,600
2019-03-21T05:57:10.475Z,592
2019-03-21T05:58:05.074Z,616
2019-03-21T05:58:58.514Z,668
2019-03-21T05:59:53.005Z,732
2019-03-21T06:02:48.297Z,988
2019-03-21T06:03:43.719Z,1072
2019-03-21T06:04:38.050Z,1160
2019-03-21T06:05:39.048Z,1268
2019-03-21T06:06:33.973Z,1340
2019-03-21T06:07:32.922Z,1400
2019-03-21T06:08:27.353Z,1508
2019-03-21T06:12:40.673Z,2136
2019-03-21T06:13:40.340Z,1924
2019-03-21T06:14:39.594Z,1748
2019-03-21T06:15:50.435Z,1720
2019-03-21T06:17:05.294Z,2016
2019-03-21T06:18:04.686Z,2404
2019-03-21T06:19:04.910Z,2564
2019-03-21T06:20:04.953Z,2696
2019-03-21T06:21:02.595Z,2956
2019-03-21T06:22:00.395Z,3232
2019-03-21T06:22:58.589Z,3664
2019-03-21T06:23:54.561Z,4140
2019-03-21T06:24:52.597Z,4412
2019-03-21T06:25:53.144Z,4744
2019-03-21T06:30:28.504Z,6592
2019-03-21T06:31:07.859Z,6668
2019-03-21T06:31:48.250Z,6328
2019-03-21T06:32:28.706Z,5984
2019-03-21T06:33:09.256Z,5912
2019-03-21T06:33:49.758Z,6136
2019-03-21T06:34:30.210Z,6452
2019-03-21T06:35:10.591Z,6320
2019-03-21T06:35:51.009Z,6168
2019-03-21T06:36:31.384Z,6116
2019-03-21T06:37:11.785Z,6080
2019-03-21T06:37:52.436Z,6052
2019-03-21T06:38:32.593Z,6204
2019-03-21T06:39:13.026Z,6680
2019-03-21T06:39:53.481Z,7588
2019-03-21T06:40:36.226Z,8212
2019-03-21T06:41:16.716Z,8608
2019-03-21T06:41:57.183Z,8540
2019-03-21T06:42:38.992Z,8832
2019-03-21T06:43:18.031Z,8840
2019-03-21T06:46:58.508Z,9028
2019-03-21T06:47:38.853Z,9216
2019-03-21T06:48:19.322Z,9296
2019-03-21T06:48:59.737Z,9360
2019-03-21T06:49:40.295Z,9436
2019-03-21T06:50:25.744Z,9588
2019-03-21T06:51:06.314Z,9616
2019-03-21T06:51:48.669Z,9744
2019-03-21T06:52:29.069Z,9800
2019-03-21T06:53:13.570Z,9748
2019-03-21T06:53:54.075Z,9888
2019-03-21T06:58:07.634Z,10128
2019-03-21T06:58:49.551Z,10072
2019-03-21T06:59:30.148Z,10168
2019-03-21T07:00:10.436Z,10492
2019-03-21T07:02:42.584Z,12144
2019-03-21T07:03:36.079Z,12132
2019-03-21T07:04:30.903Z,11864
2019-03-21T07:05:39.614Z,11668
2019-03-21T07:10:21.712Z,10908
2019-03-21T07:11:00.704Z,11032
2019-03-21T07:11:41.119Z,11288
2019-03-21T07:12:21.679Z,11108
2019-03-21T07:13:02.444Z,10512
2019-03-21T07:13:42.642Z,10436
2019-03-21T07:14:24.886Z,10492
2019-03-21T07:15:06.594Z,10132
2019-03-21T07:15:46.577Z,9920
2019-03-21T07:16:27.907Z,10184
2019-03-21T07:17:08.644Z,10592
2019-03-21T07:17:49.498Z,10520
2019-03-21T07:18:30.926Z,10288
2019-03-21T07:19:10.994Z,9480
2019-03-21T07:19:51.807Z,8860
2019-03-21T07:20:33.012Z,8664
2019-03-21T07:21:13.465Z,8572
2019-03-21T07:21:53.907Z,8204
2019-03-21T07:22:34.365Z,7652
2019-03-21T07:23:16.086Z,7332
2019-03-21T07:23:57.125Z,7080
2019-03-21T07:24:37.878Z,6996
2019-03-21T07:25:18.774Z,6820
2019-03-21T07:25:59.248Z,6732
2019-03-21T07:26:42.131Z,6644
2019-03-21T07:27:22.688Z,6484
2019-03-21T07:28:03.262Z,6404
2019-03-21T07:28:45.452Z,6432
2019-03-21T07:39:40.984Z,5660
2019-03-21T07:40:43.720Z,6124
2019-03-21T07:41:58.049Z,6424
2019-03-21T07:45:05.084Z,5536
2019-03-21T07:46:14.951Z,5420
2019-03-21T07:47:16.368Z,5032
2019-03-21T07:53:34.312Z,3840
2019-03-21T07:54:12.568Z,3452
2019-03-21T07:54:54.212Z,3332
2019-03-21T07:55:34.612Z,3268
2019-03-21T07:56:15.957Z,3196
2019-03-21T07:56:56.507Z,3132
2019-03-21T07:57:39.156Z,3076
2019-03-21T07:58:19.680Z,2980
2019-03-21T07:59:02.038Z,2824
2019-03-21T07:59:42.180Z,2704
2019-03-21T08:00:23.349Z,2644
2019-03-21T08:01:04.159Z,2616
2019-03-21T08:01:47.025Z,2596
2019-03-21T08:02:40.232Z,2568
2019-03-21T08:06:18.191Z,2468
2019-03-21T08:06:58.816Z,2460
2019-03-21T08:09:45.558Z,2416
2019-03-21T08:12:36.680Z,2352
2019-03-21T08:14:54.645Z,2324
2019-03-21T08:15:37.816Z,2316
2019-03-21T08:16:16.585Z,2308
2019-03-21T08:17:00.805Z,2308
2019-03-21T08:17:42.227Z,2300
2019-03-21T08:18:22.743Z,2292
2019-03-21T08:19:03.606Z,2288
2019-03-21T08:24:39.030Z,2208
2019-03-21T08:26:09.764Z,2212
2019-03-21T08:26:50.343Z,2200
2019-03-21T08:27:30.713Z,2196
2019-03-21T08:28:11.229Z,2200
2019-03-21T08:28:52.808Z,2192
2019-03-21T08:29:33.233Z,2184
2019-03-21T08:30:13.631Z,2180
2019-03-21T08:30:54.172Z,2180
2019-03-21T08:31:34.601Z,2172
2019-03-21T08:32:16.808Z,2172
2019-03-21T08:32:57.231Z,2168
2019-03-21T08:36:18.338Z,2156
2019-03-21T08:37:00.063Z,2148
2019-03-21T08:37:40.889Z,2140
2019-03-21T08:38:21.459Z,2144
2019-03-21T08:39:03.766Z,2140
2019-03-21T08:39:44.362Z,2140
2019-03-21T08:40:24.755Z,2136
2019-03-21T08:41:05.170Z,2132
2019-03-21T08:41:46.615Z,2128
2019-03-21T08:42:27.123Z,2132
2019-03-21T08:43:07.535Z,2124
2019-03-21T08:43:50.831Z,2120
2019-03-21T08:44:31.577Z,2120
2019-03-21T08:45:12.098Z,2112
2019-03-21T08:45:52.688Z,2100
2019-03-21T08:46:33.358Z,2104
2019-03-21T08:47:13.943Z,2100
2019-03-21T08:47:54.375Z,2096
2019-03-21T08:48:34.818Z,2096
2019-03-21T08:49:16.813Z,2092
2019-03-21T08:49:57.237Z,2084
2019-03-21T08:50:37.636Z,2084
2019-03-21T08:51:18.029Z,2084
2019-03-21T08:52:02.122Z,2080
2019-03-21T08:52:44.299Z,2084
2019-03-21T08:53:34.764Z,2076
2019-03-21T08:54:15.388Z,2076
2019-03-21T08:54:59.331Z,2064
2019-03-21T08:58:50.960Z,2008
2019-03-21T09:06:35.575Z,1976
2019-03-21T09:09:21.665Z,1960
2019-03-21T09:11:47.081Z,1956
2019-03-21T09:12:27.726Z,1948
2019-03-21T09:13:08.200Z,1940
2019-03-21T09:13:48.828Z,1932
2019-03-21T09:14:29.248Z,1928
2019-03-21T09:15:09.601Z,1932
2019-03-21T09:15:50.064Z,1920
2019-03-21T09:16:31.043Z,1908
2019-03-21T09:17:11.689Z,1908
2019-03-21T09:17:52.122Z,1908
2019-03-21T09:18:32.576Z,1912
2019-03-21T09:19:14.070Z,1908
2019-03-21T09:19:53.771Z,1912
2019-03-21T09:20:34.299Z,1896
2019-03-21T09:21:19.412Z,1896
2019-03-21T09:21:56.175Z,1892
2019-03-21T09:22:37.028Z,1888
2019-03-21T09:26:35.218Z,1860
2019-03-21T09:27:36.166Z,1860
2019-03-21T09:29:24.451Z,1844
2019-03-21T09:33:26.341Z,1820
2019-03-21T09:34:03.341Z,1816
2019-03-21T09:34:44.757Z,1816
2019-03-21T09:35:25.003Z,1820
2019-03-21T09:36:05.593Z,1808
2019-03-21T09:36:46.210Z,1800
2019-03-21T09:37:26.757Z,1792
2019-03-21T09:38:07.652Z,1748
2019-03-21T09:38:48.536Z,1748
2019-03-21T09:39:30.025Z,1744
2019-03-21T09:40:10.098Z,1772
2019-03-21T09:40:51.571Z,1764
2019-03-21T09:41:32.436Z,1764
2019-03-21T09:42:14.073Z,1772
2019-03-21T09:42:54.044Z,1760
2019-03-21T09:43:34.607Z,1756
2019-03-21T09:44:15.061Z,1744
2019-03-21T09:44:55.569Z,1736
2019-03-21T09:45:35.928Z,1744
2019-03-21T09:47:11.976Z,1740
2019-03-21T09:47:52.368Z,1736
2019-03-21T09:48:33.177Z,1724
2019-03-21T09:49:14.682Z,1720
2019-03-21T09:49:55.061Z,1716
2019-03-21T09:50:37.733Z,1708
2019-03-21T09:51:18.324Z,1704
2019-03-21T09:51:58.840Z,1700
2019-03-21T09:52:39.267Z,1696
2019-03-21T09:53:19.819Z,1692
2019-03-21T09:54:09.187Z,1684
2019-03-21T09:54:40.796Z,1676
2019-03-21T09:55:22.993Z,1656
2019-03-21T09:56:08.286Z,1652
2019-03-21T09:56:48.851Z,1652
2019-03-21T09:57:29.270Z,1652
2019-03-21T09:58:10.109Z,1652
2019-03-21T09:58:50.679Z,1644
2019-03-21T09:59:31.074Z,1648
2019-03-21T10:00:11.601Z,1644
2019-03-21T10:00:52.088Z,1636
2019-03-21T10:01:32.652Z,1636
2019-03-21T10:02:13.282Z,1628
2019-03-21T10:02:53.647Z,1624
2019-03-21T10:03:34.134Z,1616
2019-03-21T10:04:14.522Z,1604
2019-03-21T10:04:55.013Z,1592
2019-03-21T10:05:35.354Z,1576
2019-03-21T10:06:15.879Z,1580
2019-03-21T10:06:56.261Z,1588
2019-03-21T10:07:36.890Z,1584
2019-03-21T10:08:17.416Z,1592
2019-03-21T10:08:57.806Z,1588
2019-03-21T10:09:38.268Z,1592
2019-03-21T10:10:18.862Z,1576
2019-03-21T10:11:00.191Z,1572
2019-03-21T10:11:40.448Z,1568
2019-03-21T10:12:21.082Z,1560
2019-03-21T10:13:01.534Z,1556
2019-03-21T10:13:42.079Z,1528
2019-03-21T10:14:22.848Z,1552
2019-03-21T10:16:50.990Z,1524
2019-03-21T10:21:15.714Z,1512
2019-03-21T10:22:13.487Z,1504
2019-03-21T10:23:10.678Z,1504
2019-03-21T10:24:04.462Z,1512
2019-03-21T10:24:59.269Z,1496
2019-03-21T10:25:56.621Z,1496
2019-03-21T10:26:54.273Z,1496
2019-03-21T10:27:51.261Z,1504
2019-03-21T10:28:51.762Z,1512
2019-03-21T11:07:04.694Z,1408
2019-03-21T11:07:46.008Z,1404
2019-03-21T11:08:26.653Z,1408
2019-03-21T11:09:06.882Z,1404
2019-03-21T11:09:47.249Z,1404
2019-03-21T11:10:27.698Z,1400
2019-03-21T11:11:08.114Z,1400
2019-03-21T11:11:48.601Z,1396
2019-03-21T11:12:28.917Z,1396
2019-03-21T11:13:09.477Z,1392
2019-03-21T11:13:49.773Z,1388
2019-03-21T11:14:30.213Z,1384
2019-03-21T11:15:10.700Z,1380
2019-03-21T11:15:52.846Z,1380
2019-03-21T11:16:33.214Z,1380
2019-03-21T11:17:13.613Z,1380
2019-03-21T11:17:54.144Z,1380
2019-03-21T11:18:36.145Z,1376
2019-03-21T11:19:14.845Z,1380
2019-03-21T11:19:55.347Z,1376
2019-03-21T11:20:35.872Z,1372
2019-03-21T11:21:16.206Z,1372
2019-03-21T11:22:05.667Z,1372
2019-03-21T11:26:08.977Z,1364
2019-03-21T11:27:01.688Z,1360
2019-03-21T11:27:57.102Z,1360
2019-03-21T11:30:33.621Z,1352
2019-03-21T11:31:16.394Z,1352
2019-03-21T11:31:58.621Z,1352
2019-03-21T11:32:40.862Z,1352
2019-03-21T11:33:21.391Z,1352
2019-03-21T11:34:02.554Z,1348
2019-03-21T11:34:43.007Z,1348
2019-03-21T11:35:24.484Z,1344
2019-03-21T11:36:04.942Z,1340
2019-03-21T11:36:45.315Z,1344
2019-03-21T11:37:25.700Z,1340
2019-03-21T11:38:06.127Z,1340
2019-03-21T11:38:46.548Z,1336
2019-03-21T11:39:27.008Z,1340
2019-03-21T11:40:07.420Z,1332
2019-03-21T11:40:48.496Z,1324
2019-03-21T11:41:28.177Z,1324
2019-03-21T11:42:08.617Z,1320
2019-03-21T11:42:49.035Z,1320
2019-03-21T11:43:29.452Z,1320
2019-03-21T11:44:09.918Z,1320
2019-03-21T11:44:50.465Z,1324
2019-03-21T11:47:13.931Z,1320
2019-03-21T11:47:54.493Z,1320
2019-03-21T11:48:36.517Z,1320
2019-03-21T11:49:16.958Z,1320
2019-03-21T11:49:59.035Z,1312
2019-03-21T11:50:39.332Z,1312
2019-03-21T11:51:19.824Z,1312
2019-03-21T11:52:00.111Z,1312
2019-03-21T11:52:41.168Z,1308
2019-03-21T11:53:20.897Z,1312
2019-03-21T11:54:01.288Z,1308
2019-03-21T11:54:41.724Z,1308
2019-03-21T11:55:22.165Z,1308
2019-03-21T11:56:02.678Z,1304
2019-03-21T11:56:44.020Z,1304
2019-03-21T11:57:23.596Z,1304
2019-03-21T11:58:04.037Z,1300
2019-03-21T11:58:44.445Z,1300
2019-03-21T11:59:36.855Z,1296
2019-03-21T12:00:05.457Z,1296
2019-03-21T12:00:45.900Z,1292
2019-03-21T12:01:26.698Z,1296
2019-03-21T12:02:07.181Z,1292
2019-03-21T12:02:47.565Z,1284
2019-03-21T12:03:28.054Z,1284
2019-03-21T12:04:09.215Z,1280
2019-03-21T12:04:49.034Z,1284
2019-03-21T12:05:33.533Z,1284
2019-03-21T12:06:14.025Z,1284
2019-03-21T12:06:54.395Z,1280
2019-03-21T12:07:34.875Z,1276
2019-03-21T12:08:15.242Z,1276
2019-03-21T12:08:55.706Z,1276
2019-03-21T12:09:36.192Z,1276
2019-03-21T12:10:16.610Z,1272
2019-03-21T12:10:57.016Z,1272
2019-03-21T12:11:37.523Z,1268
2019-03-21T12:12:17.894Z,1268
2019-03-21T12:12:58.318Z,1264
2019-03-21T12:13:38.821Z,1264
2019-03-21T12:14:19.208Z,1260
2019-03-21T12:14:59.631Z,1260
2019-03-21T12:15:41.997Z,1260
2019-03-21T12:16:23.252Z,1260
2019-03-21T12:17:05.634Z,1260
2019-03-21T12:17:46.055Z,1252
2019-03-21T12:18:26.560Z,1244
2019-03-21T12:19:06.968Z,1248
2019-03-21T12:19:47.429Z,1244
2019-03-21T12:20:28.107Z,1240
2019-03-21T12:21:09.058Z,1240
2019-03-21T12:21:49.493Z,1240
2019-03-21T12:22:30.565Z,1248
2019-03-21T12:25:39.381Z,1232
2019-03-21T12:26:19.729Z,1232
2019-03-21T12:27:00.170Z,1228
2019-03-21T12:27:40.583Z,1220
2019-03-21T12:28:20.996Z,1224
2019-03-21T12:29:01.468Z,1224
2019-03-21T12:29:41.872Z,1224
2019-03-21T12:30:22.307Z,1224
2019-03-21T12:31:02.729Z,1216
2019-03-21T12:31:46.915Z,1216
2019-03-21T12:32:27.623Z,1224
2019-03-21T12:33:22.739Z,1224
2019-03-21T12:34:03.187Z,1228
2019-03-21T12:34:43.513Z,1228
2019-03-21T12:35:24.106Z,1224
2019-03-21T12:36:06.818Z,1224
2019-03-21T12:36:49.631Z,1224
2019-03-21T12:37:33.030Z,1224
2019-03-21T12:38:14.448Z,1220
2019-03-21T12:38:54.850Z,1224
2019-03-21T12:39:38.034Z,1224
2019-03-21T12:40:18.382Z,1220
2019-03-21T12:40:59.620Z,1220
2019-03-21T12:41:42.164Z,1216
2019-03-21T12:42:22.617Z,1212
2019-03-21T12:43:03.062Z,1212
2019-03-21T12:43:43.474Z,1208
2019-03-21T12:44:23.854Z,1208
2019-03-21T12:45:04.242Z,1208
2019-03-21T12:45:44.661Z,1204
2019-03-21T12:46:25.232Z,1204
2019-03-21T12:47:06.794Z,1208
2019-03-21T12:47:47.248Z,1204
2019-03-21T12:48:27.678Z,1204
2019-03-21T12:49:08.065Z,1204
2019-03-21T12:49:48.514Z,1200
2019-03-21T12:50:28.872Z,1200
2019-03-21T12:51:09.328Z,1196
2019-03-21T12:51:49.707Z,1200
2019-03-21T12:52:40.688Z,1196
2019-03-21T12:53:10.541Z,1196
2019-03-21T12:53:50.965Z,1196
2019-03-21T12:54:31.405Z,1196
2019-03-21T12:55:11.798Z,1196
2019-03-21T12:55:52.189Z,1192
2019-03-21T12:56:32.628Z,1188
2019-03-21T12:57:13.128Z,1192
2019-03-21T12:57:53.512Z,1192
2019-03-21T12:58:33.946Z,1188
2019-03-21T12:59:14.426Z,1188
2019-03-21T12:59:54.835Z,1188
2019-03-21T13:00:35.287Z,1188
2019-03-21T13:01:15.710Z,1188
2019-03-21T13:07:00.536Z,1184
2019-03-21T13:10:41.439Z,1176
2019-03-21T13:11:21.111Z,1176
2019-03-21T13:12:01.608Z,1176